Hlavní strana
METAR-TAF:

METAR-TAF

Letiště :

Farmville Regional Airport

Farmville, Virginie, Spojené státy americké

zeměpisná šířka: 37-21N, zeměpisná délka: 078-26W, výška: 125 m

Aktuální stav počasí

Zpráva byla vytvořena před 26 minutami, v 16:55 UTC
Západní vítr 6 kt s nárazy do 16 kt
Teplota 6°C
Vlhkost vzduchu 33%
Tlak 1013 hPa
Viditelnost: 16.1 km
Polojasno ve výšce 6000 ft

METAR: KFVX 271655Z AUTO 27006G16KT 10SM SCT060 06/M09 A2991 RMK AO2 T00571086

Čas: 12:21 (17:21 UTC)


TAF: chybějící

Stav a předpovědi počasí z více než 4 000 letišť (zprávy METAR a TAF).

Červené a žluté tečky na mapě představují dostupné meteorologické stanice.

Když kurzor umístíte na tečku, zobrazí se název stanice.

Pak kliknutím zobrazíte stav a předpověď počasí.

Chcete-li změnit mapu, kliknutím na zelené tlačítko se znaménkem +mapu přiblížíte, kliknutím na zelené tlačítko se znaménkem – mapu oddálíte a kliknutím na zelené šipky přejdete na sousední mapy.


METAR-TAF: